Speaks, Texas
Current Conditions -  °F | °C
As of 3:55 AM on Monday 22 Dec 2014 (Local Time) from K66R Reporting Station
Haze Haze  
Wind Chill: 57°   Ceiling: 200
Heat Index: 57°   Visibility: 3mi
Dew Point: 57°   Wind: 3mph
Humidity: 98%   Direction: 180°S
Pressure: 29.78"   Gusts: NA
Location:  29.25°N, 96.7°W
Report Text: K66R 220955Z AUTO 18003KT 3SM BR OVC002 14/14 A2978 RMK AO2 T01400137
Loading
Personal Weather Stations






























Interactive Weather Map New forecast layout! Learn more

10-Day Weather Forecast

Advertisements
Track Severe Weather on mobile